createdAt,value
2019-03-27T00:02:17.177Z,13.43
2019-03-27T00:04:43.774Z,15.37
2019-03-27T00:07:10.339Z,18.63
2019-03-27T00:09:36.946Z,17.37
2019-03-27T00:12:03.522Z,15.87
2019-03-27T00:14:30.123Z,14.43
2019-03-27T00:16:56.718Z,17.03
2019-03-27T00:19:23.314Z,15.30
2019-03-27T00:21:49.870Z,15.77
2019-03-27T00:24:16.438Z,18.80
2019-03-27T00:26:43.056Z,17.20
2019-03-27T00:29:09.803Z,17.90
2019-03-27T00:31:36.415Z,16.77
2019-03-27T00:34:03.440Z,18.70
2019-03-27T00:36:30.370Z,18.53
2019-03-27T00:38:56.939Z,17.60
2019-03-27T00:41:23.562Z,13.67
2019-03-27T00:43:50.126Z,16.57
2019-03-27T00:46:16.710Z,15.40
2019-03-27T00:48:43.278Z,21.33
2019-03-27T00:51:09.871Z,17.43
2019-03-27T00:53:36.426Z,16.60
2019-03-27T00:56:03.089Z,16.30
2019-03-27T00:58:29.692Z,18.07
2019-03-27T01:01:03.892Z,21.17
2019-03-27T01:03:30.499Z,13.73
2019-03-27T01:05:57.173Z,14.67
2019-03-27T01:08:23.790Z,14.20
2019-03-27T01:10:50.382Z,17.30
2019-03-27T01:13:16.958Z,18.60
2019-03-27T01:15:43.546Z,16.93
2019-03-27T01:18:10.138Z,14.90
2019-03-27T01:20:36.706Z,17.70
2019-03-27T01:23:03.310Z,16.77
2019-03-27T01:25:30.066Z,16.03
2019-03-27T01:27:56.647Z,17.83
2019-03-27T01:30:23.350Z,20.97
2019-03-27T01:32:49.946Z,20.37
2019-03-27T01:35:16.566Z,17.37
2019-03-27T01:37:43.386Z,19.90
2019-03-27T01:40:10.131Z,19.03
2019-03-27T01:42:36.734Z,23.57
2019-03-27T01:45:04.938Z,20.57
2019-03-27T01:47:32.253Z,18.50
2019-03-27T01:49:58.864Z,22.00
2019-03-27T01:52:25.421Z,19.30
2019-03-27T01:54:52.002Z,20.43
2019-03-27T01:57:18.581Z,18.97
2019-03-27T01:59:45.167Z,19.23
2019-03-27T02:02:11.748Z,19.70
2019-03-27T02:04:38.331Z,19.37
2019-03-27T02:07:04.908Z,19.30
2019-03-27T02:09:31.474Z,19.97
2019-03-27T02:11:58.094Z,17.73
2019-03-27T02:14:24.652Z,20.57
2019-03-27T02:16:51.230Z,23.90
2019-03-27T02:19:17.813Z,23.00
2019-03-27T02:21:44.430Z,25.37
2019-03-27T02:24:11.229Z,20.57
2019-03-27T02:26:37.825Z,20.13
2019-03-27T02:29:04.460Z,21.70
2019-03-27T02:31:31.126Z,21.73
2019-03-27T02:33:57.811Z,20.43
2019-03-27T02:36:24.501Z,20.93
2019-03-27T02:38:51.183Z,25.37
2019-03-27T02:41:17.867Z,24.50
2019-03-27T02:43:44.446Z,24.80
2019-03-27T02:46:23.600Z,23.13
2019-03-27T02:48:39.492Z,23.30
2019-03-27T02:51:06.301Z,19.93
2019-03-27T02:53:32.987Z,22.87
2019-03-27T02:55:59.542Z,24.77
2019-03-27T02:58:26.119Z,23.37
2019-03-27T03:00:52.683Z,20.90
2019-03-27T03:03:19.256Z,20.00
2019-03-27T03:05:45.814Z,21.63
2019-03-27T03:08:12.374Z,25.00
2019-03-27T03:10:38.957Z,21.30
2019-03-27T03:13:05.818Z,25.73
2019-03-27T03:15:32.607Z,22.07
2019-03-27T03:17:59.274Z,23.83
2019-03-27T03:20:25.858Z,21.57
2019-03-27T03:22:52.419Z,23.40
2019-03-27T03:25:18.999Z,26.10
2019-03-27T03:27:45.556Z,23.17
2019-03-27T03:30:12.342Z,27.17
2019-03-27T03:32:39.122Z,24.13
2019-03-27T03:35:06.275Z,22.93
2019-03-27T03:37:32.931Z,28.57
2019-03-27T03:39:59.700Z,28.60
2019-03-27T03:42:26.601Z,22.70
2019-03-27T03:44:53.174Z,21.80
2019-03-27T03:47:19.760Z,23.47
2019-03-27T03:49:46.611Z,26.83
2019-03-27T03:52:13.404Z,33.67
2019-03-27T03:54:40.080Z,24.97
2019-03-27T03:57:07.330Z,28.67
2019-03-27T03:59:35.094Z,24.17
2019-03-27T04:02:01.988Z,27.80
2019-03-27T04:04:29.427Z,26.73
2019-03-27T04:06:56.344Z,29.17
2019-03-27T04:09:22.936Z,25.50
2019-03-27T04:11:49.514Z,31.17
2019-03-27T04:14:16.114Z,26.77
2019-03-27T04:16:42.686Z,31.80
2019-03-27T04:19:09.482Z,31.60
2019-03-27T04:21:36.067Z,35.27
2019-03-27T04:24:03.049Z,38.97
2019-03-27T04:26:33.427Z,28.20
2019-03-27T04:28:58.260Z,27.83
2019-03-27T04:31:24.835Z,30.87
2019-03-27T04:33:51.423Z,27.27
2019-03-27T04:36:18.031Z,32.47
2019-03-27T04:38:44.616Z,32.00
2019-03-27T04:41:11.625Z,30.57
2019-03-27T04:43:38.572Z,27.40
2019-03-27T04:46:05.437Z,33.20
2019-03-27T04:48:32.275Z,29.47
2019-03-27T04:50:58.874Z,32.83
2019-03-27T04:53:25.458Z,33.20
2019-03-27T04:55:52.050Z,34.20
2019-03-27T04:58:18.610Z,31.87
2019-03-27T05:00:45.178Z,38.83
2019-03-27T05:03:11.858Z,31.83
2019-03-27T05:05:38.430Z,30.77
2019-03-27T05:08:05.025Z,31.90
2019-03-27T05:10:31.594Z,30.73
2019-03-27T05:12:58.533Z,31.83
2019-03-27T05:15:25.095Z,30.63
2019-03-27T05:17:51.678Z,29.33
2019-03-27T05:20:18.284Z,28.43
2019-03-27T05:22:45.043Z,29.07
2019-03-27T05:25:11.792Z,202.20
2019-03-27T05:27:38.349Z,43.30
2019-03-27T05:30:05.434Z,34.60
2019-03-27T05:32:32.352Z,37.00
2019-03-27T05:34:58.938Z,31.13
2019-03-27T05:37:25.826Z,40.67
2019-03-27T05:39:52.414Z,39.63
2019-03-27T05:42:18.974Z,34.83
2019-03-27T05:44:45.554Z,36.57
2019-03-27T05:47:12.231Z,38.60
2019-03-27T05:49:38.939Z,42.80
2019-03-27T05:52:05.512Z,68.53
2019-03-27T05:54:32.078Z,42.10
2019-03-27T05:56:58.685Z,38.07
2019-03-27T05:59:25.323Z,44.27
2019-03-27T06:01:51.900Z,36.37
2019-03-27T06:04:18.624Z,35.60
2019-03-27T06:06:45.207Z,42.63
2019-03-27T06:09:11.770Z,37.83
2019-03-27T06:11:38.354Z,36.27
2019-03-27T06:14:04.923Z,42.60
2019-03-27T06:16:31.510Z,39.97
2019-03-27T06:18:58.082Z,43.00
2019-03-27T06:21:24.667Z,40.53
2019-03-27T06:23:51.355Z,43.07
2019-03-27T06:26:17.927Z,40.00
2019-03-27T06:28:44.507Z,38.53
2019-03-27T06:31:11.080Z,34.50
2019-03-27T06:33:37.661Z,35.20
2019-03-27T06:36:04.218Z,41.23
2019-03-27T06:38:30.806Z,36.83
2019-03-27T06:40:57.371Z,41.80
2019-03-27T06:43:23.948Z,39.80
2019-03-27T06:45:50.513Z,38.37
2019-03-27T06:48:26.244Z,46.63
2019-03-27T06:50:45.563Z,38.47
2019-03-27T06:53:12.116Z,48.33
2019-03-27T06:55:38.740Z,131.53
2019-03-27T06:58:05.591Z,180.67
2019-03-27T07:00:33.075Z,46.20
2019-03-27T07:02:59.689Z,44.77
2019-03-27T07:05:26.543Z,44.27
2019-03-27T07:07:53.100Z,43.83
2019-03-27T07:10:19.670Z,37.77
2019-03-27T07:12:46.235Z,36.43
2019-03-27T07:15:12.834Z,36.57
2019-03-27T07:17:39.408Z,34.33
2019-03-27T07:20:06.219Z,36.83
2019-03-27T07:22:32.795Z,31.43
2019-03-27T07:24:59.362Z,36.33
2019-03-27T07:27:25.987Z,33.17
2019-03-27T07:29:52.646Z,36.73
2019-03-27T07:32:19.287Z,39.63
2019-03-27T07:34:45.891Z,35.73
2019-03-27T07:37:12.510Z,95.70
2019-03-27T07:39:39.102Z,50.50
2019-03-27T07:42:05.694Z,38.67
2019-03-27T07:44:32.279Z,37.77
2019-03-27T07:46:59.098Z,39.73
2019-03-27T07:49:25.778Z,39.23
2019-03-27T07:51:52.386Z,43.67
2019-03-27T07:54:18.968Z,46.90
2019-03-27T07:56:45.542Z,46.97
2019-03-27T07:59:12.145Z,43.27
2019-03-27T08:01:38.719Z,40.10
2019-03-27T08:04:05.321Z,51.97
2019-03-27T08:06:31.966Z,43.40
2019-03-27T08:08:58.550Z,39.87
2019-03-27T08:11:25.227Z,45.83
2019-03-27T08:13:53.684Z,37.77
2019-03-27T08:16:20.259Z,45.40
2019-03-27T08:18:46.949Z,43.33
2019-03-27T08:21:13.534Z,46.43
2019-03-27T08:23:40.221Z,42.60
2019-03-27T08:26:06.804Z,36.47
2019-03-27T08:28:33.366Z,36.93
2019-03-27T08:30:59.966Z,40.90
2019-03-27T08:33:26.820Z,37.90
2019-03-27T08:35:53.411Z,39.90
2019-03-27T08:38:20.067Z,34.40
2019-03-27T08:40:46.643Z,36.23
2019-03-27T08:43:21.114Z,37.40
2019-03-27T08:45:41.754Z,36.17
2019-03-27T08:48:08.322Z,29.57
2019-03-27T08:50:34.915Z,31.83
2019-03-27T08:53:01.478Z,34.10
2019-03-27T08:55:28.062Z,32.00
2019-03-27T08:57:54.859Z,30.83
2019-03-27T09:00:26.690Z,31.03
2019-03-27T09:02:53.271Z,30.97
2019-03-27T09:05:19.835Z,22.90
2019-03-27T09:07:46.415Z,27.33
2019-03-27T09:10:13.179Z,28.93
2019-03-27T09:12:39.884Z,29.60
2019-03-27T09:15:07.242Z,26.30
2019-03-27T09:17:33.843Z,30.47
2019-03-27T09:20:00.435Z,33.57
2019-03-27T09:22:27.091Z,22.00
2019-03-27T09:24:53.659Z,25.53
2019-03-27T09:27:20.585Z,23.57
2019-03-27T09:29:47.201Z,29.40
2019-03-27T09:32:13.854Z,28.67
2019-03-27T09:34:40.470Z,37.23
2019-03-27T09:37:07.074Z,23.73
2019-03-27T09:39:33.710Z,30.93
2019-03-27T09:42:00.275Z,24.83
2019-03-27T09:44:26.858Z,24.03
2019-03-27T09:46:53.417Z,23.97
2019-03-27T09:49:20.074Z,26.27
2019-03-27T09:51:46.639Z,23.80
2019-03-27T09:54:13.230Z,34.27
2019-03-27T09:56:39.791Z,36.43
2019-03-27T09:59:06.477Z,21.87
2019-03-27T10:01:33.142Z,25.93
2019-03-27T10:03:59.730Z,26.13
2019-03-27T10:06:26.304Z,22.20
2019-03-27T10:08:52.874Z,27.70
2019-03-27T10:11:19.453Z,22.57
2019-03-27T10:13:46.029Z,29.90
2019-03-27T10:16:12.629Z,26.43
2019-03-27T10:18:39.505Z,23.87
2019-03-27T10:21:06.088Z,25.17
2019-03-27T10:23:32.974Z,29.03
2019-03-27T10:25:59.559Z,21.23
2019-03-27T10:28:26.115Z,19.27
2019-03-27T10:30:52.697Z,18.77
2019-03-27T10:33:19.263Z,15.83
2019-03-27T10:35:45.842Z,20.23
2019-03-27T10:38:12.583Z,20.00
2019-03-27T10:40:39.150Z,18.03
2019-03-27T10:43:05.729Z,15.97
2019-03-27T10:45:32.291Z,28.20
2019-03-27T10:47:58.898Z,17.13
2019-03-27T10:50:25.828Z,13.43
2019-03-27T10:52:52.405Z,14.97
2019-03-27T10:55:19.103Z,12.40
2019-03-27T10:57:45.777Z,14.93
2019-03-27T11:00:12.722Z,14.63
2019-03-27T11:02:39.311Z,11.17
2019-03-27T11:05:06.074Z,12.67
2019-03-27T11:07:32.654Z,10.97
2019-03-27T11:09:59.223Z,12.50
2019-03-27T11:12:25.810Z,14.03
2019-03-27T11:14:52.429Z,13.53
2019-03-27T11:17:19.010Z,14.17
2019-03-27T11:19:45.593Z,13.47
2019-03-27T11:22:12.162Z,16.77
2019-03-27T11:24:38.914Z,15.80
2019-03-27T11:27:05.523Z,10.87
2019-03-27T11:29:33.867Z,10.17
2019-03-27T11:32:00.475Z,11.10
2019-03-27T11:34:27.177Z,10.73
2019-03-27T11:36:53.770Z,12.97
2019-03-27T11:39:20.349Z,12.03
2019-03-27T11:41:46.993Z,12.50
2019-03-27T11:44:13.575Z,13.30
2019-03-27T11:46:40.145Z,13.03
2019-03-27T11:49:06.711Z,18.57
2019-03-27T11:51:33.290Z,16.87
2019-03-27T11:53:59.855Z,15.63
2019-03-27T11:56:26.468Z,14.47
2019-03-27T11:58:53.022Z,13.97
2019-03-27T12:01:19.598Z,11.20
2019-03-27T12:03:46.162Z,11.97
2019-03-27T12:06:12.850Z,18.00
2019-03-27T12:08:39.415Z,11.53
2019-03-27T12:11:05.978Z,12.70
2019-03-27T12:13:32.566Z,9.57
2019-03-27T12:15:59.138Z,10.40
2019-03-27T12:18:25.895Z,6.80
2019-03-27T12:20:58.762Z,12.80
2019-03-27T12:23:20.936Z,8.00
2019-03-27T12:25:47.503Z,7.53
2019-03-27T12:28:14.080Z,8.40
2019-03-27T12:30:40.645Z,10.40
2019-03-27T12:33:07.639Z,9.27
2019-03-27T12:35:34.628Z,12.40
2019-03-27T12:38:04.251Z,12.10
2019-03-27T12:40:29.972Z,11.23
2019-03-27T12:42:56.558Z,9.90
2019-03-27T12:45:23.205Z,14.73
2019-03-27T12:47:49.794Z,14.83
2019-03-27T12:50:16.466Z,12.37
2019-03-27T12:52:43.190Z,13.73
2019-03-27T12:55:09.991Z,12.80
2019-03-27T12:57:36.658Z,16.37
2019-03-27T13:00:07.650Z,25.90
2019-03-27T13:02:34.223Z,13.23
2019-03-27T13:05:04.887Z,17.03
2019-03-27T13:07:31.455Z,14.50
2019-03-27T13:09:58.039Z,14.67
2019-03-27T13:12:24.611Z,12.53
2019-03-27T13:14:51.186Z,9.03
2019-03-27T13:17:17.962Z,12.90
2019-03-27T13:19:44.543Z,13.03
2019-03-27T13:22:11.122Z,13.33
2019-03-27T13:24:37.690Z,12.87
2019-03-27T13:27:04.413Z,9.77
2019-03-27T13:29:30.977Z,13.23
2019-03-27T13:31:57.560Z,13.70
2019-03-27T13:34:24.151Z,12.13
2019-03-27T13:36:52.029Z,11.00
2019-03-27T13:39:18.834Z,15.50
2019-03-27T13:41:45.410Z,11.27
2019-03-27T13:44:11.974Z,11.30
2019-03-27T13:46:38.632Z,11.03
2019-03-27T13:49:05.416Z,13.40
2019-03-27T13:51:40.369Z,14.43
2019-03-27T13:54:00.501Z,13.20
2019-03-27T13:56:27.063Z,13.40
2019-03-27T13:58:53.642Z,13.67
2019-03-27T14:01:20.315Z,11.97
2019-03-27T14:03:46.898Z,13.70
2019-03-27T14:06:13.573Z,12.33
2019-03-27T14:08:40.237Z,13.90
2019-03-27T14:11:06.815Z,13.37
2019-03-27T14:13:33.473Z,10.63
2019-03-27T14:16:00.240Z,11.67
2019-03-27T14:18:26.839Z,11.13
2019-03-27T14:20:53.414Z,12.73
2019-03-27T14:23:20.367Z,15.67
2019-03-27T14:25:47.844Z,13.07
2019-03-27T14:28:14.413Z,11.60
2019-03-27T14:30:47.554Z,13.50
2019-03-27T14:33:14.278Z,15.13
2019-03-27T14:35:40.854Z,10.60
2019-03-27T14:38:07.415Z,12.13
2019-03-27T14:40:34.000Z,14.07
2019-03-27T14:43:00.562Z,12.23
2019-03-27T14:45:27.138Z,14.47
2019-03-27T14:47:53.702Z,14.87
2019-03-27T14:50:40.186Z,12.50
2019-03-27T14:53:06.746Z,15.67
2019-03-27T14:55:33.448Z,13.13
2019-03-27T14:58:00.094Z,18.10
2019-03-27T15:00:26.658Z,14.37
2019-03-27T15:02:53.299Z,16.63
2019-03-27T15:05:19.855Z,12.00
2019-03-27T15:07:46.483Z,12.90
2019-03-27T15:10:13.551Z,16.77
2019-03-27T15:12:40.122Z,14.03
2019-03-27T15:15:08.424Z,11.27
2019-03-27T15:17:35.098Z,13.47
2019-03-27T15:20:02.881Z,11.57
2019-03-27T15:22:29.470Z,11.07
2019-03-27T15:24:56.054Z,12.50
2019-03-27T15:27:22.638Z,9.33
2019-03-27T15:29:49.202Z,12.17
2019-03-27T15:32:16.028Z,11.03
2019-03-27T15:34:42.582Z,11.20
2019-03-27T15:37:09.194Z,10.13
2019-03-27T15:39:35.760Z,9.93
2019-03-27T15:42:02.423Z,13.57
2019-03-27T15:44:29.106Z,10.13
2019-03-27T15:46:55.667Z,10.27
2019-03-27T15:49:22.579Z,12.27
2019-03-27T15:51:49.423Z,13.70
2019-03-27T15:54:16.068Z,15.60
2019-03-27T15:56:42.678Z,19.37
2019-03-27T15:59:09.258Z,16.33
2019-03-27T16:01:35.814Z,11.87
2019-03-27T16:04:02.400Z,11.17
2019-03-27T16:06:29.222Z,11.37
2019-03-27T16:08:55.806Z,14.27
2019-03-27T16:11:22.367Z,12.97
2019-03-27T16:13:48.935Z,11.30
2019-03-27T16:16:15.514Z,9.50
2019-03-27T16:18:42.071Z,10.83
2019-03-27T16:21:08.667Z,12.97
2019-03-27T16:23:35.327Z,11.00
2019-03-27T16:26:02.086Z,12.73
2019-03-27T16:28:28.655Z,9.33
2019-03-27T16:30:55.700Z,11.20
2019-03-27T16:33:22.591Z,10.27
2019-03-27T16:35:49.281Z,12.37
2019-03-27T16:38:36.114Z,12.47
2019-03-27T16:41:02.698Z,13.03
2019-03-27T16:43:29.254Z,10.77
2019-03-27T16:45:55.955Z,12.57
2019-03-27T16:48:22.506Z,12.50
2019-03-27T16:50:49.174Z,12.80
2019-03-27T16:53:15.974Z,9.13
2019-03-27T16:55:42.790Z,13.30
2019-03-27T16:58:09.375Z,13.07
2019-03-27T17:00:35.942Z,14.07
2019-03-27T17:03:02.727Z,11.40
2019-03-27T17:05:29.646Z,12.97
2019-03-27T17:07:56.223Z,10.53
2019-03-27T17:10:22.784Z,14.53
2019-03-27T17:12:49.363Z,10.17
2019-03-27T17:15:16.038Z,11.87
2019-03-27T17:17:42.605Z,14.37
2019-03-27T17:20:10.397Z,10.73
2019-03-27T17:22:37.034Z,13.53
2019-03-27T17:25:05.506Z,14.87
2019-03-27T17:27:32.082Z,12.37
2019-03-27T17:29:58.769Z,11.33
2019-03-27T17:32:25.539Z,11.43
2019-03-27T17:34:52.186Z,12.53
2019-03-27T17:37:19.082Z,12.07
2019-03-27T17:39:45.663Z,13.00
2019-03-27T17:42:12.220Z,12.60
2019-03-27T17:44:38.904Z,14.70
2019-03-27T17:47:05.464Z,10.93
2019-03-27T17:49:32.043Z,10.47
2019-03-27T17:51:58.615Z,15.93
2019-03-27T17:54:25.398Z,11.40
2019-03-27T17:56:52.055Z,14.50
2019-03-27T17:59:19.933Z,11.97
2019-03-27T18:01:47.098Z,9.60
2019-03-27T18:04:13.666Z,15.63
2019-03-27T18:06:40.246Z,14.27
2019-03-27T18:09:06.942Z,25.73
2019-03-27T18:11:33.529Z,35.10
2019-03-27T18:14:00.145Z,10.43
2019-03-27T18:16:26.958Z,11.97
2019-03-27T18:18:53.531Z,15.20
2019-03-27T18:21:21.410Z,13.67
2019-03-27T18:23:48.193Z,10.83
2019-03-27T18:26:14.775Z,11.83
2019-03-27T18:28:41.339Z,12.67
2019-03-27T18:31:07.910Z,12.43
2019-03-27T18:33:34.475Z,15.70
2019-03-27T18:36:01.313Z,14.80
2019-03-27T18:38:28.210Z,12.13
2019-03-27T18:40:54.813Z,12.90
2019-03-27T18:43:21.367Z,14.70
2019-03-27T18:45:47.964Z,13.00
2019-03-27T18:48:14.530Z,13.97
2019-03-27T18:50:41.090Z,15.07
2019-03-27T18:53:07.688Z,14.10
2019-03-27T18:55:34.246Z,11.73
2019-03-27T18:58:00.954Z,13.23
2019-03-27T19:00:27.641Z,10.77
2019-03-27T19:02:54.805Z,15.80
2019-03-27T19:05:21.384Z,15.50
2019-03-27T19:07:47.971Z,14.97
2019-03-27T19:10:14.730Z,13.83
2019-03-27T19:12:41.306Z,15.27
2019-03-27T19:15:08.293Z,12.93
2019-03-27T19:17:34.949Z,16.20
2019-03-27T19:20:02.432Z,25.87
2019-03-27T19:22:29.019Z,34.00
2019-03-27T19:24:55.605Z,16.77
2019-03-27T19:27:42.059Z,16.37
2019-03-27T19:30:09.134Z,16.00
2019-03-27T19:32:35.695Z,16.03
2019-03-27T19:35:02.418Z,17.93
2019-03-27T19:37:28.999Z,19.27
2019-03-27T19:39:55.605Z,20.70
2019-03-27T19:42:22.276Z,17.23
2019-03-27T19:44:48.846Z,23.10
2019-03-27T19:47:15.531Z,19.53
2019-03-27T19:49:42.328Z,19.00
2019-03-27T19:52:09.029Z,20.07
2019-03-27T19:54:35.596Z,16.17
2019-03-27T19:57:02.160Z,18.87
2019-03-27T19:59:28.748Z,22.90
2019-03-27T20:01:55.314Z,19.10
2019-03-27T20:04:22.142Z,15.73
2019-03-27T20:06:48.740Z,16.83
2019-03-27T20:09:16.650Z,17.53
2019-03-27T20:11:46.219Z,21.13
2019-03-27T20:14:12.922Z,17.53
2019-03-27T20:16:39.498Z,18.73
2019-03-27T20:19:06.385Z,17.53
2019-03-27T20:21:32.967Z,56.63
2019-03-27T20:23:59.532Z,30.23
2019-03-27T20:26:26.102Z,23.43
2019-03-27T20:28:52.658Z,21.40
2019-03-27T20:31:19.486Z,22.47
2019-03-27T20:33:46.042Z,24.13
2019-03-27T20:36:13.260Z,21.40
2019-03-27T20:38:39.915Z,22.30
2019-03-27T20:41:06.487Z,25.70
2019-03-27T20:43:33.059Z,31.50
2019-03-27T20:45:59.614Z,26.07
2019-03-27T20:48:26.194Z,24.73
2019-03-27T20:50:53.074Z,26.97
2019-03-27T20:53:19.665Z,25.67
2019-03-27T20:55:46.230Z,27.80
2019-03-27T20:58:12.889Z,26.87
2019-03-27T21:00:39.567Z,24.57
2019-03-27T21:03:06.136Z,28.23
2019-03-27T21:05:35.118Z,39.70
2019-03-27T21:08:01.271Z,36.67
2019-03-27T21:10:27.830Z,28.03
2019-03-27T21:12:54.658Z,23.07
2019-03-27T21:15:21.249Z,18.37
2019-03-27T21:17:47.816Z,17.77
2019-03-27T21:20:14.498Z,19.60
2019-03-27T21:22:41.050Z,16.27
2019-03-27T21:25:09.627Z,16.43
2019-03-27T21:27:36.498Z,18.10
2019-03-27T21:30:09.648Z,19.83
2019-03-27T21:32:36.563Z,16.73
2019-03-27T21:35:04.452Z,20.43
2019-03-27T21:37:31.110Z,24.47
2019-03-27T21:39:57.695Z,18.97
2019-03-27T21:42:24.329Z,20.47
2019-03-27T21:44:51.231Z,19.90
2019-03-27T21:47:17.799Z,19.00
2019-03-27T21:49:44.390Z,20.77
2019-03-27T21:52:10.951Z,22.63
2019-03-27T21:54:37.528Z,21.27
2019-03-27T21:57:04.522Z,23.37
2019-03-27T21:59:31.154Z,25.63
2019-03-27T22:01:57.994Z,23.07
2019-03-27T22:04:24.554Z,27.60
2019-03-27T22:06:51.126Z,27.90
2019-03-27T22:09:17.766Z,32.17
2019-03-27T22:11:44.329Z,26.97
2019-03-27T22:14:10.911Z,24.07
2019-03-27T22:16:37.525Z,24.83
2019-03-27T22:19:04.259Z,22.67
2019-03-27T22:21:30.844Z,25.63
2019-03-27T22:23:57.407Z,22.00
2019-03-27T22:26:23.991Z,24.43
2019-03-27T22:28:50.560Z,20.20
2019-03-27T22:31:17.143Z,25.70
2019-03-27T22:33:43.712Z,25.27
2019-03-27T22:36:10.296Z,23.73
2019-03-27T22:38:36.999Z,20.63
2019-03-27T22:41:03.607Z,23.67
2019-03-27T22:43:30.199Z,22.30
2019-03-27T22:45:56.945Z,22.20
2019-03-27T22:48:23.715Z,21.83
2019-03-27T22:50:50.279Z,21.70
2019-03-27T22:53:16.871Z,20.63
2019-03-27T22:55:49.838Z,23.37
2019-03-27T22:58:13.127Z,20.13
2019-03-27T23:00:47.340Z,23.37
2019-03-27T23:03:18.583Z,27.20
2019-03-27T23:05:42.895Z,23.50
2019-03-27T23:08:09.479Z,22.70
2019-03-27T23:10:36.040Z,26.50
2019-03-27T23:13:02.631Z,23.83
2019-03-27T23:15:29.323Z,21.33
2019-03-27T23:17:56.271Z,23.47
2019-03-27T23:20:22.844Z,22.33
2019-03-27T23:22:49.430Z,22.20
2019-03-27T23:25:16.007Z,25.10
2019-03-27T23:27:42.579Z,21.07
2019-03-27T23:30:09.379Z,21.73
2019-03-27T23:32:35.957Z,22.40
2019-03-27T23:35:04.483Z,20.33
2019-03-27T23:37:31.472Z,23.57
2019-03-27T23:39:58.420Z,22.37
2019-03-27T23:42:24.991Z,24.60
2019-03-27T23:44:51.611Z,23.50
2019-03-27T23:47:18.176Z,22.10
2019-03-27T23:49:44.775Z,23.00
2019-03-27T23:52:11.347Z,24.27
2019-03-27T23:54:37.963Z,23.10
2019-03-27T23:57:04.675Z,23.17
2019-03-27T23:59:31.252Z,23.83
